Time;durP1;ratioP1;P1;durP2;ratioP2;P2;SDS_P1;SDS_P2;PMS_P1;PMS_P2;Temp;Humidity;BMP_temperature;BMP_pressure;BME280_temperature;BME280_humidity;BME280_pressure;Samples;Min_cycle;Max_cycle;Signal;HPM_P1;HPM_P2
2022/06/24 00:01:14;;;;;;;;;4.00;4.00;;;;;24.13;42.00;100359.44;5022183;28;45360;-56
2022/06/24 00:03:43;;;;;;;;;4.75;4.75;;;;;24.08;42.46;100360.78;5022435;28;45472;-57
2022/06/24 00:06:16;;;;;;;;;5.75;4.75;;;;;23.99;42.69;100351.63;5022043;28;45335;-57
2022/06/24 00:09:12;;;;;;;;;4.50;4.50;;;;;24.01;42.36;100353.22;5010303;28;45983;-57
2022/06/24 00:11:37;;;;;;;;;4.75;4.75;;;;;23.99;42.47;100357.81;5012304;28;45367;-57
2022/06/24 00:14:14;;;;;;;;;4.00;4.00;;;;;23.99;42.66;100355.13;5022414;28;45382;-57
2022/06/24 00:17:01;;;;;;;;;5.50;5.50;;;;;23.93;42.57;100347.56;5021991;28;45430;-58
2022/06/24 00:19:29;;;;;;;;;5.00;5.00;;;;;23.89;42.87;100343.38;5021704;28;46401;-58
2022/06/24 00:22:05;;;;;;;;;2.25;2.25;;;;;23.90;42.50;100354.97;5021991;28;45249;-58
2022/06/24 00:24:32;;;;;;;;;5.00;5.00;;;;;23.88;42.98;100357.75;5022047;28;45225;-57
2022/06/24 00:26:57;;;;;;;;;4.25;4.25;;;;;23.83;42.14;100352.75;5022062;28;45292;-57
2022/06/24 00:29:29;;;;;;;;;4.00;4.00;;;;;23.82;42.87;100356.41;5021702;28;45241;-58
2022/06/24 00:32:06;;;;;;;;;4.00;3.00;;;;;23.77;42.99;100355.03;5020467;28;46036;-57
2022/06/24 00:34:33;;;;;;;;;4.00;4.00;;;;;23.78;43.12;100362.97;5021542;28;45236;-58
2022/06/24 00:37:25;;;;;;;;;4.75;4.00;;;;;23.74;43.09;100358.81;5021838;28;45312;-58
2022/06/24 00:39:52;;;;;;;;;5.00;4.00;;;;;23.70;43.07;100358.19;5021619;28;46625;-57
2022/06/24 00:42:18;;;;;;;;;5.75;5.25;;;;;23.69;43.12;100355.63;5021647;28;45429;-57
2022/06/24 00:45:00;;;;;;;;;6.50;6.50;;;;;23.64;43.47;100358.66;5021776;28;45418;-58
2022/06/24 00:47:27;;;;;;;;;12.25;9.50;;;;;23.63;43.56;100356.94;5021416;28;45221;-57
2022/06/24 00:49:56;;;;;;;;;21.25;19.25;;;;;23.65;43.30;100352.31;5021095;28;45509;-57
2022/06/24 00:52:22;;;;;;;;;26.25;25.25;;;;;23.64;43.64;100350.59;5021379;28;45330;-58
2022/06/24 00:54:47;;;;;;;;;14.75;11.50;;;;;23.64;43.56;100355.97;5021611;28;45150;-58
2022/06/24 00:57:13;;;;;;;;;10.50;8.50;;;;;23.63;43.66;100356.94;5021470;28;45437;-58
2022/06/24 00:59:40;;;;;;;;;4.25;3.75;;;;;23.61;44.16;100358.03;5021686;28;46224;-57
2022/06/24 01:02:06;;;;;;;;;6.75;5.75;;;;;23.59;44.05;100358.13;5021059;28;45228;-57
2022/06/24 01:04:34;;;;;;;;;5.25;3.00;;;;;23.58;43.79;100366.31;5021435;28;45517;-57
2022/06/24 01:07:00;;;;;;;;;4.75;4.75;;;;;23.53;44.31;100358.59;5019413;28;45280;-58
2022/06/24 01:09:25;;;;;;;;;2.00;2.00;;;;;23.47;44.11;100359.94;5010606;28;45259;-57
2022/06/24 01:11:51;;;;;;;;;3.25;3.25;;;;;23.50;44.08;100366.88;5020971;28;45236;-58
2022/06/24 01:14:17;;;;;;;;;3.00;3.00;;;;;23.46;44.14;100368.94;5021420;28;45261;-57
2022/06/24 01:16:42;;;;;;;;;6.00;5.00;;;;;23.44;44.42;100364.66;5036509;28;45503;-57
2022/06/24 01:19:14;;;;;;;;;6.50;4.00;;;;;23.41;44.22;100362.19;5020773;28;45970;-57
2022/06/24 01:21:47;;;;;;;;;7.25;5.75;;;;;23.38;44.33;100365.97;5020992;28;45303;-57
2022/06/24 01:24:22;;;;;;;;;3.25;3.25;;;;;23.36;44.41;100366.06;5019803;28;45343;-58
2022/06/24 01:26:54;;;;;;;;;3.75;3.75;;;;;23.28;44.77;100364.94;5021028;28;45466;-57
2022/06/24 01:29:20;;;;;;;;;3.00;3.00;;;;;23.24;44.92;100369.66;5020660;28;45195;-58
2022/06/24 01:31:48;;;;;;;;;3.25;3.25;;;;;23.25;44.70;100371.38;5020950;28;45320;-57
2022/06/24 01:34:16;;;;;;;;;7.00;5.00;;;;;23.18;45.46;100365.63;5035895;28;45344;-57
2022/06/24 01:36:41;;;;;;;;;4.50;3.00;;;;;23.16;45.14;100362.19;5020946;28;45333;-57
2022/06/24 01:39:07;;;;;;;;;3.00;3.00;;;;;23.12;45.23;100374.06;5020533;28;46403;-57
2022/06/24 01:41:33;;;;;;;;;4.75;4.75;;;;;23.06;45.67;100369.16;5019290;28;45524;-57
2022/06/24 01:43:59;;;;;;;;;4.50;3.50;;;;;23.05;45.39;100365.59;5036214;28;45286;-57
2022/06/24 01:46:24;;;;;;;;;5.00;5.00;;;;;23.05;45.61;100370.13;5035469;28;45233;-57
2022/06/24 01:48:50;;;;;;;;;6.50;5.75;;;;;23.00;45.57;100374.97;5020501;28;46316;-57
2022/06/24 01:51:18;;;;;;;;;6.25;5.00;;;;;23.00;45.56;100369.59;5020564;28;45509;-58
2022/06/24 01:53:43;;;;;;;;;3.50;3.50;;;;;23.00;45.31;100374.97;5020744;28;45304;-57
2022/06/24 01:56:08;;;;;;;;;5.00;4.75;;;;;22.92;46.00;100380.88;5020569;28;45477;-58
2022/06/24 01:58:34;;;;;;;;;4.00;4.00;;;;;22.94;45.98;100376.25;5020570;28;46141;-58
2022/06/24 02:00:59;;;;;;;;;4.00;4.00;;;;;22.88;45.76;100374.03;5020519;28;45343;-58
2022/06/24 02:03:24;;;;;;;;;5.25;5.25;;;;;22.83;45.85;100363.63;5020499;28;45303;-58
2022/06/24 02:05:51;;;;;;;;;4.00;4.00;;;;;22.88;45.48;100369.53;5035767;28;45628;-58
2022/06/24 02:08:16;;;;;;;;;3.50;3.50;;;;;22.83;45.71;100378.84;5008564;28;45438;-57
2022/06/24 02:13:26;;;;;;;;;4.00;4.00;;;;;22.76;46.61;100373.06;5020556;28;45429;-58
2022/06/24 02:15:53;;;;;;;;;5.00;5.00;;;;;22.72;46.36;100368.91;5020200;28;45311;-58
2022/06/24 02:18:18;;;;;;;;;4.00;4.00;;;;;22.70;46.24;100365.47;5020200;28;45212;-58
2022/06/24 02:20:43;;;;;;;;;7.00;6.25;;;;;22.66;46.52;100369.34;5019819;28;45225;-57
2022/06/24 02:23:09;;;;;;;;;5.25;5.00;;;;;22.60;46.66;100365.25;5018941;28;45274;-58
2022/06/24 02:25:34;;;;;;;;;5.25;5.25;;;;;22.58;47.23;100360.97;5018924;28;45310;-57
2022/06/24 02:27:59;;;;;;;;;6.00;4.00;;;;;22.54;47.05;100365.69;5019994;28;46269;-58
2022/06/24 02:30:26;;;;;;;;;6.00;5.00;;;;;22.54;46.82;100382.63;5020089;28;45268;-58
2022/06/24 02:32:51;;;;;;;;;3.00;3.00;;;;;22.50;47.05;100383.81;5019950;28;45418;-58
2022/06/24 02:35:17;;;;;;;;;4.00;4.00;;;;;22.48;47.49;100393.78;5019891;28;45323;-55
2022/06/24 02:37:42;;;;;;;;;6.75;5.75;;;;;22.49;47.19;100363.38;5020007;28;45573;-55
2022/06/24 02:42:56;;;;;;;;;5.50;5.50;;;;;22.46;47.38;100368.06;5020223;28;45886;-56
2022/06/24 02:45:22;;;;;;;;;5.00;4.25;;;;;22.42;47.69;100359.41;5019886;28;45592;-56
2022/06/24 02:47:47;;;;;;;;;4.00;4.00;;;;;22.44;47.75;100345.91;5019564;28;45434;-56
2022/06/24 02:50:12;;;;;;;;;5.75;4.50;;;;;22.42;47.18;100335.31;5019693;28;45292;-56
2022/06/24 02:52:38;;;;;;;;;6.50;5.75;;;;;22.40;47.50;100330.06;5019812;28;45530;-53
2022/06/24 02:55:03;;;;;;;;;5.00;5.00;;;;;22.37;47.49;100324.06;5035199;28;45445;-56
2022/06/24 02:57:28;;;;;;;;;6.50;6.00;;;;;22.38;47.33;100331.97;5019497;28;45264;-56
2022/06/24 02:59:54;;;;;;;;;6.50;5.75;;;;;22.38;47.21;100326.63;5019813;28;45146;-56
2022/06/24 03:02:19;;;;;;;;;7.00;7.00;;;;;22.40;47.69;100321.16;5019577;28;45404;-56
2022/06/24 03:04:44;;;;;;;;;5.00;5.00;;;;;22.39;47.74;100312.28;5034842;28;45479;-55
2022/06/24 03:07:10;;;;;;;;;5.25;5.25;;;;;22.39;47.57;100314.97;5016274;28;45285;-56
2022/06/24 03:09:35;;;;;;;;;7.00;6.75;;;;;22.38;47.40;100323.97;5011146;28;45285;-56
2022/06/24 03:12:00;;;;;;;;;7.50;6.25;;;;;22.38;47.44;100321.28;5019656;28;45529;-56
2022/06/24 03:14:26;;;;;;;;;5.75;5.00;;;;;22.38;47.48;100323.97;5019513;28;49646;-56
2022/06/24 03:16:51;;;;;;;;;8.50;7.25;;;;;22.35;47.70;100326.84;5018976;28;53669;-56
2022/06/24 03:19:16;;;;;;;;;6.75;6.75;;;;;22.34;48.18;100324.25;5019410;28;45200;-56
2022/06/24 03:21:42;;;;;;;;;11.25;8.25;;;;;22.31;48.18;100321.78;5019488;28;45249;-56
2022/06/24 03:24:07;;;;;;;;;9.00;6.75;;;;;22.26;48.26;100324.78;5018267;28;45825;-56
2022/06/24 03:26:33;;;;;;;;;5.25;5.25;;;;;22.26;48.50;100323.94;5019202;28;45418;-56
2022/06/24 03:28:58;;;;;;;;;7.00;5.00;;;;;22.24;48.01;100313.34;5019295;28;45327;-57
2022/06/24 03:31:23;;;;;;;;;5.50;5.50;;;;;22.24;48.08;100310.66;5019239;28;45162;-56
2022/06/24 03:33:49;;;;;;;;;4.75;3.50;;;;;22.23;48.59;100322.34;5021261;28;45320;-56
2022/06/24 03:36:15;;;;;;;;;6.50;6.50;;;;;22.16;48.43;100319.25;5022363;28;46018;-57
2022/06/24 03:38:40;;;;;;;;;6.75;6.75;;;;;22.15;48.51;100324.66;5021354;28;45295;-56
2022/06/24 03:41:06;;;;;;;;;6.50;6.50;;;;;22.14;48.35;100326.50;5022402;28;45298;-56
2022/06/24 03:43:31;;;;;;;;;6.75;5.75;;;;;22.11;48.78;100316.00;5022776;28;45332;-56
2022/06/24 03:46:03;;;;;;;;;9.25;5.50;;;;;22.05;48.66;100306.59;5022384;28;46272;-56
2022/06/24 03:48:29;;;;;;;;;6.50;5.50;;;;;22.05;48.85;100311.94;5022617;28;45362;-56
2022/06/24 03:50:55;;;;;;;;;8.00;7.00;;;;;22.01;48.37;100306.91;5022125;28;45345;-58
2022/06/24 03:53:20;;;;;;;;;6.50;6.50;;;;;22.02;48.80;100309.47;5022531;28;45314;-58
2022/06/24 03:55:50;;;;;;;;;5.50;5.50;;;;;21.98;48.73;100307.13;5022289;28;45301;-59
2022/06/24 03:58:16;;;;;;;;;6.00;6.00;;;;;21.95;48.73;100310.88;5022553;28;45237;-56
2022/06/24 04:00:42;;;;;;;;;8.00;6.50;;;;;21.93;48.58;100315.47;5022255;28;45231;-56
2022/06/24 04:03:07;;;;;;;;;6.50;6.50;;;;;21.90;48.45;100318.38;5022286;28;45319;-56
2022/06/24 04:05:33;;;;;;;;;11.25;7.75;;;;;21.86;49.06;100312.38;5021882;28;45392;-56
2022/06/24 04:07:58;;;;;;;;;7.50;7.50;;;;;21.88;49.10;100323.78;5012453;28;45327;-56
2022/06/24 04:10:23;;;;;;;;;7.00;7.00;;;;;21.86;48.73;100330.22;5020750;28;45308;-53
2022/06/24 04:12:49;;;;;;;;;7.00;5.75;;;;;21.83;48.86;100325.94;5022472;28;45315;-56
2022/06/24 04:15:14;;;;;;;;;9.25;9.25;;;;;21.81;49.43;100319.84;5022023;28;45430;-56
2022/06/24 04:17:39;;;;;;;;;6.50;6.00;;;;;21.80;49.52;100325.28;5037338;28;45340;-56
2022/06/24 04:20:06;;;;;;;;;8.75;6.75;;;;;21.73;49.43;100312.31;5021909;28;45339;-56
2022/06/24 04:22:31;;;;;;;;;9.75;7.25;;;;;21.73;49.59;100323.00;5021980;28;45468;-56
2022/06/24 04:24:56;;;;;;;;;9.50;9.00;;;;;21.70;49.15;100333.09;5021668;28;46189;-56
2022/06/24 04:27:22;;;;;;;;;8.75;8.75;;;;;21.68;49.77;100330.50;5022050;28;45343;-55
2022/06/24 04:29:47;;;;;;;;;6.00;5.00;;;;;21.68;49.88;100326.97;5021992;28;45304;-56
2022/06/24 04:32:12;;;;;;;;;9.00;8.00;;;;;21.64;49.68;100329.00;5021872;28;45241;-56
2022/06/24 04:34:38;;;;;;;;;8.00;7.00;;;;;21.63;49.67;100324.59;5020163;28;45330;-55
2022/06/24 04:37:04;;;;;;;;;10.00;7.25;;;;;21.58;49.79;100324.06;5022124;28;45280;-56
2022/06/24 04:39:29;;;;;;;;;8.75;8.75;;;;;21.60;50.03;100327.50;5021872;28;45224;-55
2022/06/24 04:41:55;;;;;;;;;9.50;7.50;;;;;21.58;50.02;100324.06;5021673;28;45264;-55
2022/06/24 04:44:20;;;;;;;;;9.25;9.25;;;;;21.57;50.42;100331.22;5020726;28;45415;-56
2022/06/24 04:46:45;;;;;;;;;12.00;8.75;;;;;21.57;49.92;100330.34;5021369;28;45228;-55
2022/06/24 04:49:11;;;;;;;;;8.00;7.25;;;;;21.55;50.24;100324.25;5021099;28;48736;-56
2022/06/24 04:51:36;;;;;;;;;8.00;8.00;;;;;21.52;50.20;100324.44;5021648;28;45220;-53
2022/06/24 04:54:01;;;;;;;;;7.75;7.75;;;;;21.47;50.35;100326.56;5036308;28;45314;-55
2022/06/24 04:56:27;;;;;;;;;6.00;6.00;;;;;21.42;50.03;100319.72;5021176;28;45197;-55
2022/06/24 04:58:52;;;;;;;;;6.00;6.00;;;;;21.39;50.85;100325.25;5021669;28;45279;-55
2022/06/24 05:01:17;;;;;;;;;7.00;6.00;;;;;21.32;50.63;100329.31;5021400;28;45561;-55
2022/06/24 05:03:45;;;;;;;;;6.50;6.50;;;;;21.25;50.46;100328.81;5020049;28;46140;-55
2022/06/24 05:06:11;;;;;;;;;9.25;7.75;;;;;21.22;51.19;100325.50;5021106;28;45390;-55
2022/06/24 05:08:36;;;;;;;;;8.25;7.00;;;;;21.19;50.81;100329.22;5009624;28;45524;-53
2022/06/24 05:11:02;;;;;;;;;6.50;6.50;;;;;21.15;50.88;100330.41;5021443;28;45545;-56
2022/06/24 05:13:28;;;;;;;;;6.25;5.50;;;;;21.15;50.79;100327.72;5021055;28;46489;-55
2022/06/24 05:15:54;;;;;;;;;7.25;7.25;;;;;21.14;51.07;100327.84;5036352;28;45344;-55
2022/06/24 05:18:20;;;;;;;;;10.50;8.00;;;;;21.14;50.79;100328.69;5021314;28;45146;-55
2022/06/24 05:20:45;;;;;;;;;9.75;7.25;;;;;21.16;51.33;100321.44;5036254;28;45210;-55
2022/06/24 05:23:11;;;;;;;;;9.25;7.00;;;;;21.11;51.46;100324.38;5021026;28;45264;-55
2022/06/24 05:25:37;;;;;;;;;6.00;6.00;;;;;21.17;50.95;100324.94;5021105;28;45442;-54
2022/06/24 05:28:02;;;;;;;;;6.50;6.50;;;;;21.15;51.54;100329.56;5020970;28;45221;-54
2022/06/24 05:30:28;;;;;;;;;9.00;6.25;;;;;21.14;51.20;100334.00;5020459;28;45576;-54
2022/06/24 05:32:53;;;;;;;;;7.25;6.00;;;;;21.10;51.71;100325.34;5020481;28;45438;-55
2022/06/24 05:35:19;;;;;;;;;9.00;9.00;;;;;21.08;51.17;100329.94;5020702;28;45415;-55
2022/06/24 05:37:44;;;;;;;;;8.00;8.00;;;;;21.05;51.58;100338.13;5021100;28;45311;-55
2022/06/24 05:40:10;;;;;;;;;8.00;6.75;;;;;21.04;51.29;100336.47;5020929;28;45295;-55
2022/06/24 05:42:35;;;;;;;;;4.50;3.50;;;;;21.02;51.54;100334.81;5020492;28;46144;-55
2022/06/24 05:45:01;;;;;;;;;7.50;7.25;;;;;21.03;52.24;100339.19;5020617;28;45372;-55
2022/06/24 05:47:26;;;;;;;;;12.75;11.00;;;;;21.03;51.81;100334.72;5020687;28;45535;-55
2022/06/24 05:49:51;;;;;;;;;7.75;7.75;;;;;21.04;51.72;100335.56;5019988;28;45562;-53
2022/06/24 05:55:02;;;;;;;;;7.00;7.00;;;;;21.04;51.84;100330.22;5020623;28;45339;-54
2022/06/24 05:55:02;;;;;;;;;10.25;8.00;;;;;21.03;52.05;100340.06;5020633;28;45408;-54
2022/06/24 05:57:28;;;;;;;;;8.00;8.00;;;;;21.01;51.88;100336.63;5020159;28;45287;-52
2022/06/24 05:59:53;;;;;;;;;10.00;9.00;;;;;21.04;52.28;100336.47;5005781;28;49684;-59
2022/06/24 06:02:20;;;;;;;;;9.75;9.25;;;;;21.02;52.16;100335.69;5012166;28;47956;-60
2022/06/24 06:04:46;;;;;;;;;12.00;9.25;;;;;21.01;52.22;100333.97;5020360;28;45507;-59
2022/06/24 06:07:11;;;;;;;;;9.75;7.00;;;;;21.04;52.39;100340.91;5017123;28;45478;-59
2022/06/24 06:09:36;;;;;;;;;11.00;8.00;;;;;21.05;52.13;100343.47;5018078;28;45497;-59
2022/06/24 06:12:02;;;;;;;;;7.25;7.00;;;;;21.07;52.54;100336.25;5018739;28;46960;-59
2022/06/24 06:14:27;;;;;;;;;9.00;9.00;;;;;21.11;52.73;100345.75;5020076;28;45195;-58
2022/06/24 06:16:52;;;;;;;;;9.75;8.75;;;;;21.15;52.23;100353.59;5009282;28;45651;-57
2022/06/24 06:19:18;;;;;;;;;8.00;8.00;;;;;21.16;52.10;100358.00;5019948;28;45357;-57
2022/06/24 06:21:44;;;;;;;;;8.00;7.00;;;;;21.21;52.25;100358.53;5020025;28;46466;-58
2022/06/24 06:24:10;;;;;;;;;3.00;3.00;;;;;21.22;52.56;100354.88;5020214;28;45317;-57
2022/06/24 06:26:35;;;;;;;;;5.00;5.00;;;;;21.25;52.31;100358.22;5020005;28;45338;-56
2022/06/24 06:29:01;;;;;;;;;4.75;4.75;;;;;21.24;51.92;100359.22;5019600;28;45370;-57
2022/06/24 06:31:27;;;;;;;;;7.50;7.50;;;;;21.23;52.11;100362.81;5019651;28;47019;-60
2022/06/24 06:33:52;;;;;;;;;6.50;6.50;;;;;21.23;52.04;100369.97;5018766;28;45452;-57
2022/06/24 06:36:18;;;;;;;;;7.00;7.00;;;;;21.26;52.00;100375.13;5020144;28;45220;-57
2022/06/24 06:38:43;;;;;;;;;6.00;6.00;;;;;21.23;52.64;100377.97;5019285;28;45505;-56
2022/06/24 06:41:09;;;;;;;;;7.00;5.50;;;;;21.20;51.77;100375.53;5019505;28;45994;-53
2022/06/24 06:43:34;;;;;;;;;7.50;7.50;;;;;21.23;52.25;100384.19;5035054;28;45171;-51
2022/06/24 06:45:59;;;;;;;;;6.75;5.50;;;;;21.22;52.02;100387.81;5020203;28;45311;-49
2022/06/24 06:48:25;;;;;;;;;6.50;6.50;;;;;21.21;52.37;100382.59;5019785;28;45327;-52
2022/06/24 06:50:58;;;;;;;;;4.75;4.75;;;;;21.21;52.32;100383.44;5019314;28;45973;-51
2022/06/24 06:53:25;;;;;;;;;8.50;7.50;;;;;21.22;52.15;100378.94;5035028;28;45272;-51
2022/06/24 06:55:51;;;;;;;;;5.00;5.00;;;;;21.21;52.33;100383.44;5018647;28;45290;-53
2022/06/24 06:58:18;;;;;;;;;7.25;7.25;;;;;21.19;52.10;100382.66;5019501;28;45189;-49
2022/06/24 07:00:44;;;;;;;;;6.75;6.75;;;;;21.22;52.01;100386.94;5018827;28;45526;-48
2022/06/24 07:03:09;;;;;;;;;8.00;7.00;;;;;21.20;52.03;100381.72;5019307;28;45396;-52
2022/06/24 07:05:36;;;;;;;;;9.75;9.00;;;;;21.17;51.26;100389.94;5034665;28;45411;-52
2022/06/24 07:08:01;;;;;;;;;18.00;15.50;;;;;21.21;51.87;100375.41;5019944;28;45279;-50
2022/06/24 07:10:27;;;;;;;;;16.50;14.75;;;;;21.24;52.43;100377.03;5022579;28;46263;-52
2022/06/24 07:12:52;;;;;;;;;14.25;14.00;;;;;21.20;51.43;100371.03;5022809;28;45320;-54
2022/06/24 07:15:18;;;;;;;;;9.00;9.00;;;;;21.22;51.89;100366.44;5022005;28;45342;-53
2022/06/24 07:17:43;;;;;;;;;11.25;8.00;;;;;21.30;51.99;100375.78;5022692;28;45343;-54
2022/06/24 07:20:09;;;;;;;;;16.75;16.25;;;;;21.23;52.53;100368.16;5021355;28;47178;-53
2022/06/24 07:22:35;;;;;;;;;9.00;8.75;;;;;21.31;52.51;100364.13;5021728;28;45362;-53
2022/06/24 07:25:00;;;;;;;;;21.75;20.00;;;;;21.35;51.95;100368.31;5022799;28;45223;-54
2022/06/24 07:27:26;;;;;;;;;11.00;10.00;;;;;21.40;52.54;100369.72;5022733;28;45545;-52
2022/06/24 07:29:51;;;;;;;;;7.25;6.75;;;;;21.43;52.58;100374.88;5022839;28;45228;-54
2022/06/24 07:32:16;;;;;;;;;7.00;6.25;;;;;21.45;52.30;100371.25;5022659;28;45197;-53
2022/06/24 07:34:42;;;;;;;;;6.00;6.00;;;;;21.52;51.98;100373.44;5022415;28;48546;-53
2022/06/24 07:37:07;;;;;;;;;7.00;6.00;;;;;21.54;52.23;100365.28;5021465;28;45295;-51
2022/06/24 07:39:33;;;;;;;;;4.75;4.00;;;;;21.59;52.01;100368.56;5022789;28;46430;-52
2022/06/24 07:41:58;;;;;;;;;5.25;5.25;;;;;21.62;51.89;100362.13;5022622;28;45241;-52
2022/06/24 07:44:24;;;;;;;;;5.75;5.00;;;;;21.66;51.88;100361.84;5022797;28;45410;-53
2022/06/24 07:46:50;;;;;;;;;7.50;6.25;;;;;21.66;52.41;100366.31;5022439;28;45273;-54
2022/06/24 07:49:16;;;;;;;;;7.00;6.00;;;;;21.70;51.61;100362.50;5022219;28;46164;-54
2022/06/24 07:51:42;;;;;;;;;8.50;6.00;;;;;21.73;51.81;100368.47;5022456;28;45311;-53
2022/06/24 07:54:10;;;;;;;;;4.00;3.75;;;;;21.72;51.69;100353.41;5022792;28;45387;-55
2022/06/24 07:59:20;;;;;;;;;8.50;7.50;;;;;21.79;51.47;100361.88;5022133;28;45675;-54
2022/06/24 08:01:46;;;;;;;;;6.75;6.00;;;;;21.74;51.72;100362.16;5022063;28;45201;-53
2022/06/24 08:04:12;;;;;;;;;5.50;5.25;;;;;21.76;51.70;100359.41;5022313;28;45170;-59
2022/06/24 08:06:39;;;;;;;;;7.25;6.00;;;;;21.75;51.95;100366.56;5022291;28;45437;-53
2022/06/24 08:09:05;;;;;;;;;8.75;6.75;;;;;21.73;51.49;100355.09;5022282;28;46223;-54
2022/06/24 08:11:31;;;;;;;;;8.25;8.00;;;;;21.76;51.91;100367.44;5016106;28;45281;-53
2022/06/24 08:13:57;;;;;;;;;10.75;7.75;;;;;21.76;51.48;100370.13;5022610;28;45307;-53
2022/06/24 08:16:22;;;;;;;;;7.00;7.00;;;;;21.85;51.36;100365.97;5022020;28;45470;-53
2022/06/24 08:18:49;;;;;;;;;6.75;6.75;;;;;21.84;51.73;100367.75;5021756;28;46081;-54
2022/06/24 08:21:14;;;;;;;;;7.25;7.25;;;;;21.87;51.39;100364.91;5021927;28;45365;-54
2022/06/24 08:23:40;;;;;;;;;8.00;7.00;;;;;21.96;50.98;100362.53;5022136;28;46029;-52
2022/06/24 08:26:05;;;;;;;;;8.00;6.00;;;;;22.01;51.17;100358.59;5022110;28;45296;-55
2022/06/24 08:28:31;;;;;;;;;5.00;5.00;;;;;22.06;51.32;100363.63;5021979;28;45297;-54
2022/06/24 08:30:56;;;;;;;;;6.75;6.75;;;;;22.16;50.81;100372.75;5021601;28;45216;-53
2022/06/24 08:33:22;;;;;;;;;7.50;6.25;;;;;22.24;51.02;100364.19;5022198;28;45228;-53
2022/06/24 08:35:48;;;;;;;;;10.25;8.00;;;;;;;;5021487;28;45362;-55
2022/06/24 08:38:15;;;;;;;;;5.00;5.00;;;;;22.31;50.40;100354.75;5021825;28;46260;-52
2022/06/24 08:40:42;;;;;;;;;5.25;3.75;;;;;22.37;50.87;100361.53;5021812;28;45371;-55
2022/06/24 08:43:09;;;;;;;;;7.75;6.25;;;;;22.47;50.24;100361.75;5021962;28;45338;-55
2022/06/24 08:45:35;;;;;;;;;6.50;5.50;;;;;22.52;50.38;100346.22;5021684;28;45220;-55
2022/06/24 08:48:00;;;;;;;;;4.00;4.00;;;;;22.56;50.07;100347.72;5021499;28;45510;-54
2022/06/24 08:50:25;;;;;;;;;6.00;5.00;;;;;22.63;49.37;100340.97;5021062;28;45173;-54
2022/06/24 08:52:53;;;;;;;;;2.50;2.50;;;;;22.67;49.18;100337.09;5036509;28;45290;-55
2022/06/24 08:55:20;;;;;;;;;5.25;4.00;;;;;22.66;49.04;100335.38;5021597;28;45451;-55
2022/06/24 08:57:46;;;;;;;;;9.00;7.00;;;;;22.70;49.03;100330.66;5021442;28;46217;-54
2022/06/24 09:00:13;;;;;;;;;3.75;3.75;;;;;22.71;49.01;100332.38;5021172;28;45284;-55
2022/06/24 09:02:38;;;;;;;;;4.25;4.00;;;;;22.65;48.53;100336.34;5021304;28;45311;-55
2022/06/24 09:05:12;;;;;;;;;2.00;2.00;;;;;22.65;48.25;100328.31;5021000;28;45504;-55
2022/06/24 09:07:38;;;;;;;;;4.50;4.50;;;;;22.62;48.14;100314.31;5021320;28;46208;-55
2022/06/24 09:10:10;;;;;;;;;4.00;4.00;;;;;22.58;47.67;100321.69;5021116;28;45375;-54
2022/06/24 09:12:41;;;;;;;;;3.25;3.25;;;;;22.55;48.26;100328.13;5032015;28;45331;-55
2022/06/24 09:15:09;;;;;;;;;3.00;3.00;;;;;22.55;48.49;100319.22;5021020;28;45178;-55
2022/06/24 09:17:36;;;;;;;;;3.25;2.75;;;;;22.58;48.43;100327.06;5020902;28;46449;-55
2022/06/24 09:20:08;;;;;;;;;2.00;2.00;;;;;22.59;48.32;100339.47;5020849;28;45335;-55
2022/06/24 09:22:34;;;;;;;;;3.25;2.00;;;;;22.58;48.45;100318.16;5021191;28;45332;-56
2022/06/24 09:25:01;;;;;;;;;4.50;4.00;;;;;22.64;48.38;100307.88;5020997;28;45276;-52
2022/06/24 09:27:27;;;;;;;;;2.00;1.25;;;;;22.66;47.63;100318.47;5021017;28;45425;-55
2022/06/24 09:29:52;;;;;;;;;2.25;2.25;;;;;22.67;48.05;100301.44;5020721;28;45284;-55
2022/06/24 09:32:18;;;;;;;;;1.50;1.50;;;;;22.67;48.22;100301.44;5020373;28;45584;-55
2022/06/24 09:35:03;;;;;;;;;3.00;3.00;;;;;22.71;47.88;100298.41;5020695;28;45220;-55
2022/06/24 09:37:35;;;;;;;;;3.25;2.50;;;;;22.70;47.79;100291.38;5020640;28;45411;-55
2022/06/24 09:40:24;;;;;;;;;2.75;2.25;;;;;22.73;48.01;100284.94;5020844;28;45323;-55
2022/06/24 09:43:02;;;;;;;;;2.50;2.00;;;;;22.79;47.99;100287.16;5020869;28;45430;-55
2022/06/24 09:45:43;;;;;;;;;1.00;1.00;;;;;22.84;47.47;100278.78;5019364;28;45577;-54
2022/06/24 09:48:10;;;;;;;;;1.00;1.00;;;;;22.88;47.63;100275.78;5020524;28;45310;-54
2022/06/24 09:50:36;;;;;;;;;2.25;2.25;;;;;22.98;47.74;100275.94;5020129;28;45468;-54
2022/06/24 09:53:02;;;;;;;;;3.75;2.50;;;;;23.02;47.80;100290.81;5020752;28;45240;-55
2022/06/24 09:55:28;;;;;;;;;3.00;2.25;;;;;23.09;47.51;100290.38;5020530;28;45224;-54
2022/06/24 09:57:55;;;;;;;;;2.25;2.25;;;;;23.14;47.49;100282.84;5019218;28;46276;-55
2022/06/24 10:03:08;;;;;;;;;1.50;1.50;;;;;23.28;47.23;100287.19;5020526;28;45402;-54
2022/06/24 10:05:35;;;;;;;;;2.50;2.50;;;;;23.36;47.25;100288.34;5020061;28;45181;-54
2022/06/24 10:08:03;;;;;;;;;2.00;2.00;;;;;23.44;46.94;100278.88;5020297;28;46433;-54
2022/06/24 10:10:32;;;;;;;;;2.00;2.00;;;;;23.52;47.05;100277.31;5020003;28;45452;-55
2022/06/24 10:13:07;;;;;;;;;2.00;2.00;;;;;23.62;47.14;100284.66;5030902;28;45359;-55
2022/06/24 10:15:33;;;;;;;;;2.50;2.50;;;;;23.69;46.57;100285.91;5019761;28;45438;-54
2022/06/24 10:18:00;;;;;;;;;4.00;2.50;;;;;23.75;46.65;100281.88;5019921;28;45263;-53
2022/06/24 10:20:26;;;;;;;;;3.00;3.00;;;;;23.74;46.53;100281.03;5019993;28;45367;-55
2022/06/24 10:22:54;;;;;;;;;1.25;1.00;;;;;23.70;46.23;100288.44;5035474;28;45280;-54
2022/06/24 10:25:47;;;;;;;;;1.50;1.50;;;;;23.77;45.96;100277.25;5020100;28;45452;-55
2022/06/24 10:28:13;;;;;;;;;0.25;0.00;;;;;23.78;46.04;100292.38;5019805;28;46347;-55
2022/06/24 10:30:39;;;;;;;;;1.00;1.00;;;;;23.78;45.70;100289.69;5018661;28;45382;-55
2022/06/24 10:33:25;;;;;;;;;2.00;2.00;;;;;23.80;45.92;100277.03;5020398;28;45337;-53
2022/06/24 10:35:59;;;;;;;;;1.75;1.75;;;;;23.82;46.12;100275.94;5019825;28;45304;-54
2022/06/24 10:38:33;;;;;;;;;3.25;3.25;;;;;23.81;46.60;100278.72;5019891;28;46846;-54
2022/06/24 10:41:01;;;;;;;;;2.25;2.25;;;;;23.90;45.93;100275.34;5019672;28;45293;-55
2022/06/24 10:43:34;;;;;;;;;1.25;1.25;;;;;23.92;46.13;100284.13;5018763;28;45276;-55
2022/06/24 10:46:18;;;;;;;;;2.75;2.25;;;;;24.00;46.18;100271.00;5019380;28;45280;-55
2022/06/24 10:48:43;;;;;;;;;2.50;2.25;;;;;24.13;45.76;100270.03;5019454;28;45355;-55
2022/06/24 10:51:16;;;;;;;;;0.75;0.00;;;;;24.34;46.55;100262.13;5019546;28;45253;-55
2022/06/24 10:54:17;;;;;;;;;3.00;3.00;;;;;24.68;46.70;100262.09;5019901;28;45294;-55
2022/06/24 10:56:49;;;;;;;;;2.50;2.50;;;;;25.09;46.36;100275.78;4977943;28;45409;-53
2022/06/24 10:59:19;;;;;;;;;1.25;1.25;;;;;25.45;46.09;100258.44;5012494;28;46410;-55
2022/06/24 11:01:49;;;;;;;;;1.25;1.25;;;;;25.83;45.84;100242.69;5019357;28;45240;-56
2022/06/24 11:04:18;;;;;;;;;2.00;2.00;;;;;26.18;46.05;100254.94;5019640;28;45354;-55
2022/06/24 11:07:05;;;;;;;;;3.00;2.00;;;;;26.40;44.96;100253.03;5034782;28;45483;-55
2022/06/24 11:09:31;;;;;;;;;3.00;3.00;;;;;26.51;45.02;100246.72;5019299;28;46201;-55
2022/06/24 11:11:56;;;;;;;;;2.25;1.50;;;;;26.56;44.06;100247.97;5014448;28;45382;-55
2022/06/24 11:14:25;;;;;;;;;1.25;1.25;;;;;26.57;44.45;100259.63;5019707;28;45478;-56
2022/06/24 11:16:51;;;;;;;;;0.00;0.00;;;;;26.51;43.50;100246.72;5019340;28;45495;-55
2022/06/24 11:19:18;;;;;;;;;1.00;1.00;;;;;26.47;43.60;100264.13;5019002;28;45402;-56
2022/06/24 11:21:50;;;;;;;;;1.00;1.00;;;;;26.38;42.73;100260.44;5019503;28;45260;-56
2022/06/24 11:24:20;;;;;;;;;1.00;1.00;;;;;26.30;43.04;100254.84;5019490;28;45335;-55
2022/06/24 11:27:08;;;;;;;;;1.00;1.00;;;;;26.21;42.74;100269.97;5019206;28;45320;-55
2022/06/24 11:29:56;;;;;;;;;3.00;2.00;;;;;25.99;43.31;100265.56;5018948;28;45348;-55
2022/06/24 11:32:22;;;;;;;;;2.75;2.00;;;;;25.89;42.85;100289.75;5019072;28;45249;-55
2022/06/24 11:34:48;;;;;;;;;3.00;1.25;;;;;25.74;42.83;100278.47;5019034;28;45547;-55
2022/06/24 11:37:20;;;;;;;;;2.25;2.25;;;;;25.73;42.66;100274.91;5019170;28;45181;-55